Time;durP1;ratioP1;P1;durP2;ratioP2;P2;SDS_P1;SDS_P2;PMS_P1;PMS_P2;Temp;Humidity;BMP_temperature;BMP_pressure;BME280_temperature;BME280_humidity;BME280_pressure;Samples;Min_cycle;Max_cycle;Signal;HPM_P1;HPM_P2
2023/08/11 00:00:09;;;;;;;4.15;1.30;;;15.00;99.90;;;;;;4995378;28;20189;-87
2023/08/11 00:02:38;;;;;;;6.63;1.70;;;15.00;99.90;;;;;;5013906;28;20269;-87
2023/08/11 00:05:04;;;;;;;4.72;1.83;;;15.00;99.90;;;;;;4996251;28;20183;-88
2023/08/11 00:07:30;;;;;;;2.90;1.58;;;15.10;99.90;;;;;;5013531;28;20176;-86
2023/08/11 00:09:56;;;;;;;3.65;1.63;;;15.10;99.90;;;;;;4996280;28;20262;-88
2023/08/11 00:12:22;;;;;;;2.88;1.60;;;15.20;99.90;;;;;;5013222;28;20211;-86
2023/08/11 00:14:48;;;;;;;6.80;2.03;;;15.10;99.90;;;;;;4996061;28;20918;-87
2023/08/11 00:17:14;;;;;;;5.10;1.70;;;15.10;99.90;;;;;;4996344;28;20202;-87
2023/08/11 00:19:42;;;;;;;4.47;1.70;;;15.20;99.90;;;;;;4996119;28;20182;-88
2023/08/11 00:22:09;;;;;;;5.28;1.60;;;15.20;99.90;;;;;;4995867;28;20179;-88
2023/08/11 00:24:35;;;;;;;3.75;1.80;;;15.20;99.90;;;;;;4996619;28;20271;-88
2023/08/11 00:27:04;;;;;;;4.00;1.80;;;15.20;99.90;;;;;;5013912;28;20262;-92
2023/08/11 00:29:31;;;;;;;9.80;2.00;;;15.30;99.90;;;;;;4996022;28;20214;-89
2023/08/11 00:31:57;;;;;;;4.70;1.83;;;15.20;99.90;;;;;;4996272;28;20508;-87
2023/08/11 00:34:23;;;;;;;229.07;161.40;;;15.30;99.90;;;;;;4995830;28;20175;-87
2023/08/11 00:36:49;;;;;;;8.73;2.03;;;15.30;99.90;;;;;;4995845;28;20266;-88
2023/08/11 00:39:15;;;;;;;18.90;2.28;;;15.30;99.90;;;;;;5420193;23;20251;-86
2023/08/11 00:41:41;;;;;;;278.65;12.65;;;15.30;99.90;;;;;;4959710;28;20275;-86
2023/08/11 00:44:07;;;;;;;31.85;12.13;;;15.40;99.90;;;;;;4977887;28;20204;-87
2023/08/11 00:46:33;;;;;;;11.80;4.10;;;15.40;99.90;;;;;;4961832;28;20187;-86
2023/08/11 00:49:00;;;;;;;5.95;2.05;;;15.40;99.90;;;;;;4978811;28;20673;-87
2023/08/11 00:51:28;;;;;;;4.10;1.42;;;15.40;99.90;;;;;;4977760;28;20262;-89
2023/08/11 00:53:56;;;;;;;5.90;1.83;;;15.40;99.90;;;;;;4961494;28;20180;-87
2023/08/11 00:56:22;;;;;;;1.52;1.05;;;15.50;99.90;;;;;;4961874;28;20180;-87
2023/08/11 00:58:49;;;;;;;178.80;17.17;;;15.40;99.90;;;;;;4979124;28;20168;-86
2023/08/11 01:01:17;;;;;;;2.10;0.75;;;15.50;99.90;;;;;;4960518;28;20204;-86
2023/08/11 01:03:47;;;;;;;123.88;6.85;;;15.50;99.90;;;;;;4961773;28;20252;-86
2023/08/11 01:06:23;;;;;;;3.53;0.88;;;15.50;99.90;;;;;;4961634;28;20192;-86
2023/08/11 01:08:53;;;;;;;3.25;1.23;;;15.50;99.90;;;;;;4960672;28;20204;-87
2023/08/11 01:11:38;;;;;;;0.73;0.73;;;15.50;99.90;;;;;;4977142;28;20181;-86
2023/08/11 01:14:17;;;;;;;1.85;1.27;;;15.50;99.90;;;;;;4977411;28;20169;-87
2023/08/11 01:16:48;;;;;;;2.45;0.90;;;15.50;99.90;;;;;;4977424;28;20302;-87
2023/08/11 01:19:31;;;;;;;58.60;6.47;;;15.50;99.90;;;;;;4961325;28;20176;-86
2023/08/11 01:22:00;;;;;;;103.15;8.32;;;15.50;99.90;;;;;;4961401;28;20180;-87
2023/08/11 01:24:31;;;;;;;6.18;1.98;;;15.50;99.90;;;;;;4961162;28;20172;-87
2023/08/11 01:26:57;;;;;;;3.05;1.33;;;15.50;99.90;;;;;;4961233;28;20181;-86
2023/08/11 01:29:26;;;;;;;4.05;1.30;;;15.50;99.90;;;;;;4961060;28;20679;-87
2023/08/11 01:31:54;;;;;;;1.60;1.20;;;15.50;99.90;;;;;;4960710;28;20228;-87
2023/08/11 01:34:19;;;;;;;3.85;1.27;;;15.50;99.90;;;;;;4978483;28;20224;-88
2023/08/11 01:36:46;;;;;;;7.38;1.50;;;15.50;99.90;;;;;;4960964;28;20181;-88
2023/08/11 01:39:13;;;;;;;2.08;1.25;;;15.50;99.90;;;;;;4965221;28;20594;-87
2023/08/11 01:41:39;;;;;;;3.05;1.52;;;15.50;99.90;;;;;;4980258;28;20176;-87
2023/08/11 01:44:08;;;;;;;2.65;1.25;;;15.50;99.90;;;;;;4980295;28;20172;-88
2023/08/11 01:46:34;;;;;;;3.90;1.20;;;15.50;99.90;;;;;;4979849;28;20176;-87
2023/08/11 01:49:01;;;;;;;1.60;0.93;;;15.60;99.90;;;;;;4997261;28;20239;-87
2023/08/11 01:51:35;;;;;;;2.50;1.00;;;15.60;99.90;;;;;;4979956;28;20634;-87
2023/08/11 01:54:01;;;;;;;7.25;1.65;;;15.60;99.90;;;;;;4980126;28;20564;-86
2023/08/11 01:56:28;;;;;;;4.78;1.90;;;15.60;99.90;;;;;;4979953;28;20184;-87
2023/08/11 01:58:56;;;;;;;2.72;1.20;;;15.60;99.90;;;;;;4979719;28;20267;-86
2023/08/11 02:01:24;;;;;;;5.47;1.00;;;15.60;99.90;;;;;;4979753;28;20243;-87
2023/08/11 02:03:49;;;;;;;10.48;1.40;;;15.60;99.90;;;;;;4997187;28;20169;-87
2023/08/11 02:06:15;;;;;;;3.55;1.15;;;15.60;99.90;;;;;;4979789;28;20187;-86
2023/08/11 02:08:41;;;;;;;2.30;0.90;;;15.60;99.90;;;;;;4996921;28;20208;-87
2023/08/11 02:11:08;;;;;;;1.73;0.88;;;15.60;99.90;;;;;;4979450;28;20545;-87
2023/08/11 02:13:34;;;;;;;1.55;0.95;;;15.60;99.90;;;;;;4979510;28;20194;-87
2023/08/11 02:16:00;;;;;;;4.20;0.88;;;15.60;99.90;;;;;;4979494;28;20183;-87
2023/08/11 02:18:25;;;;;;;3.13;1.05;;;15.60;99.90;;;;;;4979017;28;20176;-87
2023/08/11 02:20:59;;;;;;;2.15;1.52;;;15.60;99.90;;;;;;4996701;28;20175;-87
2023/08/11 02:23:25;;;;;;;2.50;0.93;;;15.60;99.90;;;;;;4979526;28;20611;-87
2023/08/11 02:25:51;;;;;;;2.50;1.30;;;15.60;99.90;;;;;;4979556;28;20187;-86
2023/08/11 02:28:16;;;;;;;1.80;1.38;;;15.50;99.90;;;;;;4979212;28;20561;-88
2023/08/11 02:30:42;;;;;;;3.30;1.02;;;15.60;99.90;;;;;;4996705;28;20223;-87
2023/08/11 02:33:08;;;;;;;4.03;1.35;;;15.60;99.90;;;;;;4996363;28;20222;-87
2023/08/11 02:35:33;;;;;;;4.20;1.23;;;15.60;99.90;;;;;;4979357;28;20279;-87
2023/08/11 02:37:59;;;;;;;1.58;0.80;;;15.60;99.90;;;;;;4996616;28;20607;-87
2023/08/11 02:40:26;;;;;;;6.40;1.25;;;15.60;99.90;;;;;;4979131;28;20238;-87
2023/08/11 02:42:57;;;;;;;7.90;1.63;;;15.60;99.90;;;;;;4979131;28;20184;-87
2023/08/11 02:45:24;;;;;;;6.40;0.88;;;15.60;99.90;;;;;;4979127;28;20221;-87
2023/08/11 02:47:51;;;;;;;9.57;1.17;;;15.60;99.90;;;;;;4978819;28;20602;-86
2023/08/11 02:50:17;;;;;;;3.17;1.35;;;15.60;99.90;;;;;;4995067;28;20211;-86
2023/08/11 02:52:45;;;;;;;3.60;1.30;;;15.60;99.90;;;;;;4995095;28;20175;-87
2023/08/11 02:55:13;;;;;;;2.08;0.93;;;15.60;99.90;;;;;;4978827;28;20176;-86
2023/08/11 02:57:39;;;;;;;4.50;1.70;;;15.50;99.90;;;;;;4978777;28;20235;-87
2023/08/11 03:00:13;;;;;;;2.83;1.23;;;15.50;99.90;;;;;;4978816;28;20180;-87
2023/08/11 03:02:46;;;;;;;2.30;0.90;;;15.50;99.90;;;;;;4978825;28;20527;-86
2023/08/11 03:05:12;;;;;;;1.83;1.35;;;15.50;99.90;;;;;;4978389;28;20168;-87
2023/08/11 03:07:38;;;;;;;3.70;1.08;;;15.50;99.90;;;;;;4978613;28;20187;-87
2023/08/11 03:10:05;;;;;;;6.72;1.45;;;15.50;99.90;;;;;;4978576;28;20297;-87
2023/08/11 03:12:38;;;;;;;1.17;1.00;;;15.50;99.90;;;;;;4978163;28;20518;-86
2023/08/11 03:15:05;;;;;;;18.17;1.77;;;15.60;99.90;;;;;;4978599;28;20230;-87
2023/08/11 03:17:31;;;;;;;2.10;1.75;;;15.60;99.90;;;;;;4978271;28;20180;-88
2023/08/11 03:19:57;;;;;;;23.02;9.80;;;15.60;99.90;;;;;;4978510;28;20206;-86
2023/08/11 03:22:23;;;;;;;3.22;0.90;;;15.60;99.90;;;;;;4977638;28;20630;-87
2023/08/11 03:24:49;;;;;;;0.85;0.80;;;15.60;99.90;;;;;;4977453;28;20176;-87
2023/08/11 03:27:15;;;;;;;4.13;1.33;;;15.70;99.90;;;;;;4978341;28;20275;-86
2023/08/11 03:29:41;;;;;;;1.77;1.00;;;15.60;99.90;;;;;;4978294;28;20298;-87
2023/08/11 03:32:07;;;;;;;4.68;1.48;;;15.60;99.90;;;;;;4978359;28;20183;-93
2023/08/11 03:34:33;;;;;;;11.15;1.50;;;15.60;99.90;;;;;;4978784;28;20198;-87
2023/08/11 03:36:59;;;;;;;1.27;1.10;;;15.60;99.90;;;;;;4978352;28;20614;-87
2023/08/11 03:39:24;;;;;;;12.18;2.65;;;15.70;99.90;;;;;;4978042;28;20682;-87
2023/08/11 03:41:57;;;;;;;169.90;11.00;;;15.60;99.90;;;;;;4995801;28;20559;-88
2023/08/11 03:44:23;;;;;;;100.45;5.88;;;15.60;99.90;;;;;;4978505;28;20625;-87
2023/08/11 03:46:49;;;;;;;468.30;103.85;;;15.60;99.90;;;;;;4995537;28;20251;-86
2023/08/11 03:49:15;;;;;;;99.63;59.78;;;15.60;99.90;;;;;;4978295;28;20212;-88
2023/08/11 03:51:41;;;;;;;2.92;1.73;;;15.70;99.90;;;;;;4995340;28;20285;-90
2023/08/11 03:54:06;;;;;;;3.50;1.80;;;15.70;99.90;;;;;;4977486;28;20183;-91
2023/08/11 03:56:32;;;;;;;6.07;2.28;;;15.70;99.90;;;;;;4994917;28;20687;-88
2023/08/11 03:58:58;;;;;;;6.13;2.47;;;15.70;99.90;;;;;;4977800;28;20190;-90
2023/08/11 04:01:23;;;;;;;8.65;2.67;;;15.70;99.90;;;;;;4978160;28;20183;-91
2023/08/11 04:03:57;;;;;;;8.35;2.10;;;15.70;99.90;;;;;;4995407;28;20506;-92
2023/08/11 04:06:31;;;;;;;7.03;2.67;;;15.70;99.90;;;;;;4978512;28;20187;-92
2023/08/11 04:08:59;;;;;;;7.93;2.22;;;15.70;99.90;;;;;;4978083;28;20317;-88
2023/08/11 04:11:25;;;;;;;7.15;2.33;;;15.70;99.90;;;;;;4978158;28;20287;-94
2023/08/11 04:13:51;;;;;;;11.20;2.55;;;15.70;99.90;;;;;;4978049;28;20210;-94
2023/08/11 04:16:17;;;;;;;5.50;1.92;;;15.70;99.90;;;;;;4979046;28;20207;-89
2023/08/11 04:18:42;;;;;;;5.60;2.33;;;15.70;99.90;;;;;;4998677;28;20230;-91
2023/08/11 04:21:08;;;;;;;13.10;2.20;;;15.70;99.90;;;;;;4981591;28;20219;-86
2023/08/11 04:23:34;;;;;;;10.98;2.38;;;15.70;99.90;;;;;;4981294;28;20175;-87
2023/08/11 04:25:59;;;;;;;6.07;2.35;;;15.70;99.90;;;;;;4981258;28;20172;-90
2023/08/11 04:28:26;;;;;;;5.63;2.20;;;15.70;99.90;;;;;;4981033;28;20705;-86
2023/08/11 04:30:52;;;;;;;9.15;2.30;;;15.70;99.90;;;;;;4981248;28;20266;-87
2023/08/11 04:33:17;;;;;;;4.22;1.98;;;15.70;99.90;;;;;;4980665;28;20276;-86
2023/08/11 04:35:43;;;;;;;5.53;2.25;;;15.80;99.90;;;;;;4998246;28;20168;-87
2023/08/11 04:38:09;;;;;;;7.80;2.10;;;15.80;99.90;;;;;;4981288;28;20180;-85
2023/08/11 04:40:35;;;;;;;6.97;2.20;;;15.80;99.90;;;;;;4981220;28;20234;-86
2023/08/11 04:43:02;;;;;;;12.80;2.70;;;15.80;99.90;;;;;;4981131;28;20199;-86
2023/08/11 04:45:28;;;;;;;6.25;2.25;;;15.80;99.90;;;;;;4981320;28;20590;-87
2023/08/11 04:47:54;;;;;;;5.95;2.03;;;15.80;99.90;;;;;;4980789;28;20203;-87
2023/08/11 04:50:19;;;;;;;9.27;2.53;;;15.80;99.90;;;;;;4980585;28;20204;-86
2023/08/11 04:52:57;;;;;;;5.13;2.05;;;15.80;99.90;;;;;;4981011;28;20180;-87
2023/08/11 04:55:25;;;;;;;8.45;2.35;;;15.80;99.90;;;;;;4998262;28;20630;-87
2023/08/11 04:57:50;;;;;;;14.63;2.17;;;15.80;99.90;;;;;;4996996;28;20180;-87
2023/08/11 05:00:17;;;;;;;8.15;2.33;;;15.80;99.90;;;;;;5003992;28;20529;-87
2023/08/11 05:02:44;;;;;;;8.23;2.53;;;15.80;99.90;;;;;;5000173;28;20187;-87
2023/08/11 05:05:11;;;;;;;8.10;2.22;;;15.80;99.90;;;;;;4997130;28;20183;-86
2023/08/11 05:07:37;;;;;;;6.63;2.00;;;15.90;99.90;;;;;;4991368;28;20184;-87
2023/08/11 05:10:04;;;;;;;6.60;2.33;;;15.80;99.90;;;;;;4980592;28;20777;-86
2023/08/11 05:12:31;;;;;;;5.32;2.00;;;15.90;99.90;;;;;;4997935;28;20298;-86
2023/08/11 05:14:57;;;;;;;7.57;1.95;;;16.00;99.90;;;;;;4980582;28;20263;-86
2023/08/11 05:17:22;;;;;;;7.68;2.00;;;16.00;99.90;;;;;;4980555;28;20187;-86
2023/08/11 05:19:48;;;;;;;6.57;2.20;;;16.00;99.90;;;;;;4980401;28;20525;-85
2023/08/11 05:22:14;;;;;;;6.05;1.92;;;16.00;99.90;;;;;;4980641;28;20179;-86
2023/08/11 05:24:39;;;;;;;7.63;2.00;;;16.00;99.90;;;;;;4980545;28;20180;-86
2023/08/11 05:27:05;;;;;;;5.05;1.90;;;16.10;99.90;;;;;;4980001;28;20183;-87
2023/08/11 05:29:31;;;;;;;9.60;2.28;;;16.10;99.90;;;;;;4980149;28;20306;-86
2023/08/11 05:31:57;;;;;;;12.88;2.13;;;16.20;99.90;;;;;;4980228;28;20187;-87
2023/08/11 05:34:23;;;;;;;9.40;2.20;;;16.10;99.90;;;;;;4997509;28;20257;-86
2023/08/11 05:36:49;;;;;;;13.70;2.30;;;16.20;99.90;;;;;;4978970;28;20746;-86
2023/08/11 05:39:15;;;;;;;6.22;2.08;;;16.20;99.90;;;;;;4979806;28;20266;-86
2023/08/11 05:41:41;;;;;;;6.15;2.00;;;16.20;99.90;;;;;;4979408;28;20611;-86
2023/08/11 05:44:08;;;;;;;9.80;2.10;;;16.30;99.90;;;;;;4979884;28;20271;-87
2023/08/11 05:46:34;;;;;;;7.20;1.92;;;16.30;99.90;;;;;;4979902;28;20168;-86
2023/08/11 05:48:59;;;;;;;5.57;2.28;;;16.30;99.90;;;;;;4978583;28;20203;-87
2023/08/11 05:51:25;;;;;;;7.82;2.20;;;16.30;99.90;;;;;;4980039;28;20249;-86
2023/08/11 05:53:52;;;;;;;7.50;2.22;;;16.30;99.90;;;;;;4978938;28;20185;-86
2023/08/11 05:56:17;;;;;;;10.88;2.20;;;16.40;99.90;;;;;;4979637;28;20265;-87
2023/08/11 05:58:43;;;;;;;6.18;2.15;;;16.40;99.90;;;;;;4978963;28;20195;-85
2023/08/11 06:01:09;;;;;;;5.40;1.80;;;16.40;99.90;;;;;;4979771;28;20625;-86
2023/08/11 06:03:35;;;;;;;3.58;1.92;;;16.40;99.90;;;;;;4979466;28;20187;-86
2023/08/11 06:06:04;;;;;;;4.00;2.00;;;16.50;99.90;;;;;;4960295;28;20172;-86
2023/08/11 06:08:30;;;;;;;7.32;2.25;;;16.60;99.90;;;;;;4976163;28;20204;-86
2023/08/11 06:10:56;;;;;;;3.97;1.90;;;16.70;99.90;;;;;;4991631;28;20614;-86
2023/08/11 06:13:27;;;;;;;6.57;1.98;;;16.70;99.90;;;;;;4979162;28;20176;-86
2023/08/11 06:15:53;;;;;;;9.25;2.20;;;16.70;99.90;;;;;;4978750;28;20176;-87
2023/08/11 06:18:19;;;;;;;3.88;1.83;;;16.80;99.90;;;;;;4979434;28;20614;-86
2023/08/11 06:20:45;;;;;;;6.40;2.15;;;16.80;99.90;;;;;;4979127;28;20270;-87
2023/08/11 06:23:12;;;;;;;5.32;2.03;;;16.90;99.90;;;;;;4979301;28;20175;-86
2023/08/11 06:25:38;;;;;;;6.68;1.90;;;16.90;99.90;;;;;;4995432;28;20204;-86
2023/08/11 06:28:04;;;;;;;7.05;2.15;;;17.00;99.90;;;;;;4978355;28;20176;-85
2023/08/11 06:30:30;;;;;;;107.57;12.02;;;17.00;99.90;;;;;;4978863;28;20199;-86
2023/08/11 06:32:57;;;;;;;3.60;1.88;;;17.00;99.90;;;;;;4979082;28;20226;-86
2023/08/11 06:35:25;;;;;;;6.30;2.08;;;17.10;99.90;;;;;;4979191;28;20183;-86
2023/08/11 06:37:51;;;;;;;7.10;2.05;;;17.10;99.90;;;;;;4996461;28;20645;-86
2023/08/11 06:40:17;;;;;;;11.23;2.00;;;17.30;99.90;;;;;;4978219;28;20223;-86
2023/08/11 06:42:43;;;;;;;5.22;2.10;;;17.30;99.90;;;;;;4978656;28;20676;-86
2023/08/11 06:45:10;;;;;;;8.15;1.58;;;17.40;99.90;;;;;;4978709;28;20179;-86
2023/08/11 06:47:36;;;;;;;6.78;2.00;;;17.50;99.90;;;;;;4979144;28;20238;-87
2023/08/11 06:50:03;;;;;;;5.72;1.90;;;17.50;99.90;;;;;;4978515;28;20215;-86
2023/08/11 06:52:29;;;;;;;10.35;1.85;;;17.60;99.90;;;;;;4978841;28;20611;-86
2023/08/11 06:55:03;;;;;;;5.50;2.05;;;17.60;99.90;;;;;;4978702;28;20242;-87
2023/08/11 06:57:28;;;;;;;7.05;1.92;;;17.60;99.90;;;;;;4994498;28;20176;-86
2023/08/11 06:59:55;;;;;;;7.45;2.17;;;17.70;99.90;;;;;;4978760;28;20180;-85
2023/08/11 07:02:21;;;;;;;5.03;1.65;;;17.70;99.90;;;;;;4978464;28;20186;-86
2023/08/11 07:04:48;;;;;;;5.68;2.00;;;17.70;99.90;;;;;;4978623;28;20266;-86
2023/08/11 07:07:14;;;;;;;11.63;2.38;;;17.70;99.90;;;;;;4978454;28;20657;-85
2023/08/11 07:09:39;;;;;;;7.22;2.28;;;17.70;99.90;;;;;;4978408;28;20254;-86
2023/08/11 07:12:06;;;;;;;5.05;2.10;;;17.80;99.90;;;;;;4995451;28;20173;-85
2023/08/11 07:14:32;;;;;;;8.52;2.55;;;17.90;99.90;;;;;;4977724;28;20183;-86
2023/08/11 07:16:58;;;;;;;6.53;2.00;;;18.00;99.90;;;;;;4978275;28;20176;-85
2023/08/11 07:19:24;;;;;;;7.95;2.60;;;18.20;99.90;;;;;;4977889;28;20495;-85
2023/08/11 07:21:50;;;;;;;6.00;2.15;;;18.40;99.90;;;;;;4994268;28;20262;-86
2023/08/11 07:24:17;;;;;;;6.25;2.88;;;18.70;99.90;;;;;;4978248;28;20226;-86
2023/08/11 07:26:42;;;;;;;7.50;2.50;;;19.00;99.90;;;;;;4978301;28;20219;-87
2023/08/11 07:29:08;;;;;;;9.15;2.63;;;19.10;99.90;;;;;;4977622;28;20212;-87
2023/08/11 07:31:34;;;;;;;141.00;6.97;;;19.30;99.90;;;;;;4978047;28;20188;-88
2023/08/11 07:34:00;;;;;;;7.55;2.40;;;19.50;99.90;;;;;;4978316;28;20204;-87
2023/08/11 07:36:26;;;;;;;7.88;2.90;;;19.60;99.90;;;;;;4978284;28;20172;-87
2023/08/11 07:38:52;;;;;;;6.22;2.47;;;19.80;99.90;;;;;;4979713;28;20198;-88
2023/08/11 07:41:18;;;;;;;8.80;2.97;;;19.90;99.90;;;;;;4977677;28;20579;-87
2023/08/11 07:43:43;;;;;;;7.00;2.80;;;20.00;99.90;;;;;;4964759;28;20642;-87
2023/08/11 07:46:09;;;;;;;5.32;2.25;;;20.20;99.90;;;;;;4974999;28;20269;-86
2023/08/11 07:48:35;;;;;;;5.07;2.28;;;20.30;99.90;;;;;;4976002;28;20208;-87
2023/08/11 07:51:00;;;;;;;10.45;2.53;;;20.40;99.90;;;;;;4977210;28;20263;-88
2023/08/11 07:53:26;;;;;;;8.85;3.05;;;20.50;99.90;;;;;;4998068;28;20528;-88
2023/08/11 07:55:52;;;;;;;7.88;2.80;;;20.60;99.90;;;;;;5001453;28;20179;-87
2023/08/11 07:58:18;;;;;;;4.88;2.42;;;20.70;99.90;;;;;;5001147;28;20637;-89
2023/08/11 08:00:44;;;;;;;9.68;2.95;;;20.70;99.90;;;;;;5000863;28;20183;-86
2023/08/11 08:03:10;;;;;;;4.60;2.80;;;20.80;99.90;;;;;;5000408;28;20175;-89
2023/08/11 08:05:36;;;;;;;5.97;2.58;;;20.80;99.90;;;;;;5017833;28;20176;-88
2023/08/11 08:08:01;;;;;;;5.90;2.78;;;20.90;99.90;;;;;;5000487;28;20317;-91
2023/08/11 08:10:27;;;;;;;6.95;2.95;;;21.10;99.90;;;;;;5018670;28;20215;-87
2023/08/11 08:12:53;;;;;;;3.60;2.63;;;21.10;99.90;;;;;;4994690;28;20184;-84
2023/08/11 08:15:19;;;;;;;10.95;6.03;;;21.20;99.90;;;;;;4981601;28;20533;-86
2023/08/11 08:17:45;;;;;;;6.05;3.10;;;21.30;99.90;;;;;;4981345;28;20168;-86
2023/08/11 08:20:14;;;;;;;5.70;2.60;;;21.30;99.90;;;;;;4981478;28;20176;-88
2023/08/11 08:22:41;;;;;;;5.47;2.45;;;21.40;99.90;;;;;;4981150;28;20207;-85
2023/08/11 08:25:07;;;;;;;11.45;4.65;;;21.40;99.90;;;;;;4981269;28;20526;-87
2023/08/11 08:27:37;;;;;;;9.07;2.70;;;21.50;99.90;;;;;;4981000;28;20211;-87
2023/08/11 08:30:05;;;;;;;4.15;2.30;;;21.60;99.90;;;;;;4981086;28;20212;-86
2023/08/11 08:32:31;;;;;;;4.85;2.20;;;21.70;99.90;;;;;;4981146;28;20176;-86
2023/08/11 08:34:56;;;;;;;4.57;2.33;;;21.80;99.90;;;;;;4980906;28;20187;-88
2023/08/11 08:37:24;;;;;;;3.67;2.30;;;21.80;99.90;;;;;;4981210;28;20243;-85
2023/08/11 08:39:51;;;;;;;5.70;2.30;;;21.90;99.90;;;;;;4980944;28;20235;-88
2023/08/11 08:42:18;;;;;;;4.55;2.00;;;22.00;99.90;;;;;;4981066;28;20839;-88
2023/08/11 08:44:49;;;;;;;4.68;1.70;;;22.10;99.90;;;;;;4981532;28;20526;-88
2023/08/11 08:47:19;;;;;;;6.25;1.83;;;22.30;99.90;;;;;;4981316;28;20234;-88
2023/08/11 08:49:46;;;;;;;2.83;1.42;;;22.30;99.90;;;;;;4980930;28;20314;-88
2023/08/11 08:52:12;;;;;;;2.60;1.05;;;22.20;99.90;;;;;;4998378;28;20221;-87
2023/08/11 08:54:39;;;;;;;2.45;1.55;;;22.30;99.90;;;;;;4981078;28;20637;-87
2023/08/11 08:57:09;;;;;;;3.13;1.85;;;22.40;99.90;;;;;;4980687;28;20183;-86
2023/08/11 08:59:34;;;;;;;13.02;4.88;;;22.50;99.90;;;;;;4997375;28;20176;-88
2023/08/11 09:02:00;;;;;;;3.40;1.77;;;22.50;99.90;;;;;;4980217;28;20274;-86
2023/08/11 09:04:27;;;;;;;4.93;1.50;;;22.40;99.90;;;;;;4980833;28;20186;-87
2023/08/11 09:06:55;;;;;;;2.47;1.65;;;22.30;99.90;;;;;;4981206;28;20179;-87
2023/08/11 09:09:23;;;;;;;2.17;1.27;;;22.10;99.90;;;;;;4980681;28;20207;-88
2023/08/11 09:11:49;;;;;;;3.65;1.83;;;22.00;99.90;;;;;;4997962;28;20502;-88
2023/08/11 09:14:17;;;;;;;5.90;1.67;;;22.10;99.90;;;;;;4963147;28;20267;-88
2023/08/11 09:16:44;;;;;;;4.57;1.63;;;22.10;99.90;;;;;;4961042;28;20271;-90
2023/08/11 09:19:12;;;;;;;3.42;1.38;;;22.40;99.90;;;;;;4976690;28;20208;-88
2023/08/11 09:21:42;;;;;;;6.40;1.70;;;22.70;99.90;;;;;;4976957;28;20191;-88
2023/08/11 09:24:11;;;;;;;3.35;1.67;;;22.70;99.90;;;;;;4977538;28;20180;-89
2023/08/11 09:26:44;;;;;;;4.65;1.63;;;23.00;99.90;;;;;;4961333;28;20267;-88
2023/08/11 09:29:11;;;;;;;3.20;1.77;;;23.00;99.90;;;;;;4978009;28;20325;-89
2023/08/11 09:31:38;;;;;;;49.90;2.95;;;23.10;99.90;;;;;;4979735;28;20200;-87
2023/08/11 09:34:15;;;;;;;2.90;1.80;;;23.20;99.90;;;;;;4980159;28;20180;-87
2023/08/11 09:36:44;;;;;;;67.18;4.32;;;23.10;99.90;;;;;;4980080;28;20619;-86
2023/08/11 09:39:11;;;;;;;6.68;1.98;;;23.10;99.90;;;;;;4979981;28;20323;-86
2023/08/11 09:41:45;;;;;;;5.47;1.85;;;23.10;99.90;;;;;;4980154;28;20164;-89
2023/08/11 09:44:21;;;;;;;16.17;8.10;;;23.20;99.90;;;;;;4979974;28;20679;-87
2023/08/11 09:46:56;;;;;;;741.20;49.55;;;23.40;99.90;;;;;;4980074;28;20211;-87
2023/08/11 09:49:22;;;;;;;3.78;1.90;;;23.40;99.90;;;;;;4997444;28;20764;-87
2023/08/11 09:51:50;;;;;;;4.28;2.10;;;23.50;99.90;;;;;;4979489;28;20188;-88
2023/08/11 09:54:18;;;;;;;4.57;2.30;;;23.20;99.90;;;;;;4996614;28;20535;-86
2023/08/11 09:56:44;;;;;;;3.22;1.80;;;23.00;99.90;;;;;;4979400;28;20176;-87
2023/08/11 09:59:17;;;;;;;4.35;1.80;;;22.80;99.90;;;;;;4979203;28;20195;-88
2023/08/11 10:01:44;;;;;;;4.50;2.05;;;22.80;99.90;;;;;;4979945;28;20184;-89
2023/08/11 10:04:22;;;;;;;4.00;1.80;;;22.80;99.90;;;;;;4980060;28;20180;-91
2023/08/11 10:06:52;;;;;;;4.45;1.95;;;23.00;99.90;;;;;;4979899;28;20164;-88
2023/08/11 10:09:21;;;;;;;3.53;1.90;;;23.30;99.90;;;;;;4979565;28;20216;-89
2023/08/11 10:11:48;;;;;;;3.30;1.50;;;23.30;99.90;;;;;;4995867;28;20275;-88
2023/08/11 10:14:17;;;;;;;7.20;1.80;;;23.30;99.90;;;;;;4979080;28;20176;-91
2023/08/11 10:16:47;;;;;;;3.22;1.42;;;23.30;99.90;;;;;;4996966;28;20172;-90
2023/08/11 10:19:13;;;;;;;2.13;1.25;;;23.50;99.90;;;;;;4996644;28;20171;-88
2023/08/11 10:21:40;;;;;;;3.33;1.48;;;23.50;99.90;;;;;;4995995;28;20188;-88
2023/08/11 10:24:06;;;;;;;2.92;1.73;;;23.60;99.90;;;;;;4996991;28;20622;-88
2023/08/11 10:26:39;;;;;;;2.67;1.50;;;23.80;99.90;;;;;;4996977;28;20180;-89
2023/08/11 10:29:04;;;;;;;3.67;1.38;;;23.90;99.90;;;;;;4996288;28;20199;-88
2023/08/11 10:31:32;;;;;;;4.93;1.60;;;24.10;99.90;;;;;;4962825;28;20203;-89
2023/08/11 10:34:04;;;;;;;3.47;1.80;;;24.10;99.90;;;;;;4977291;28;20477;-89
2023/08/11 10:36:32;;;;;;;3.28;1.48;;;24.20;99.90;;;;;;4959788;28;20181;-88
2023/08/11 10:39:06;;;;;;;2.40;1.60;;;24.20;99.90;;;;;;4975834;28;20176;-90
2023/08/11 10:41:33;;;;;;;2.60;1.60;;;24.20;99.90;;;;;;4977265;28;20196;-90
2023/08/11 10:43:59;;;;;;;2.47;1.52;;;24.30;99.90;;;;;;4975693;28;20500;-88
2023/08/11 10:46:36;;;;;;;2.58;1.63;;;24.40;99.90;;;;;;4975654;28;20188;-89
2023/08/11 10:49:08;;;;;;;3.47;1.60;;;24.40;99.90;;;;;;4975555;28;20216;-90
2023/08/11 10:51:37;;;;;;;2.55;1.60;;;24.40;99.90;;;;;;4975793;28;20180;-88
2023/08/11 10:54:09;;;;;;;3.55;1.48;;;24.40;99.90;;;;;;4975626;28;20183;-92
2023/08/11 10:56:38;;;;;;;2.25;1.48;;;24.50;99.90;;;;;;4975160;28;20180;-89
2023/08/11 10:59:31;;;;;;;3.70;1.20;;;24.50;99.90;;;;;;4974768;28;20176;-87
2023/08/11 11:01:59;;;;;;;3.38;1.38;;;24.60;99.90;;;;;;4959381;28;20176;-90
2023/08/11 11:04:30;;;;;;;3.78;1.38;;;24.70;99.90;;;;;;4959435;28;20620;-88
2023/08/11 11:06:58;;;;;;;1.67;1.20;;;24.70;99.90;;;;;;4959373;28;20180;-90
2023/08/11 11:09:25;;;;;;;1.45;1.10;;;24.80;99.90;;;;;;4976372;28;20200;-88
2023/08/11 11:11:51;;;;;;;3.85;1.73;;;24.90;99.90;;;;;;4959069;28;20506;-90
2023/08/11 11:14:18;;;;;;;1.35;1.20;;;25.00;99.90;;;;;;4981726;28;20176;-88
2023/08/11 11:16:59;;;;;;;4.13;1.10;;;25.00;99.90;;;;;;4995822;28;20172;-90
2023/08/11 11:19:25;;;;;;;1.42;1.08;;;25.00;99.90;;;;;;4978708;28;20246;-90
2023/08/11 11:21:51;;;;;;;3.50;1.42;;;25.00;99.90;;;;;;4978494;28;20180;-89
2023/08/11 11:24:18;;;;;;;1.23;1.10;;;25.20;99.90;;;;;;4978169;28;20184;-88
2023/08/11 11:26:46;;;;;;;2.38;1.08;;;25.20;99.90;;;;;;4995393;28;20614;-88
2023/08/11 11:29:12;;;;;;;1.17;1.00;;;25.20;99.90;;;;;;4978093;28;20203;-89
2023/08/11 11:31:38;;;;;;;1.63;1.10;;;25.30;99.90;;;;;;4978350;28;20184;-88
2023/08/11 11:34:05;;;;;;;4.43;0.90;;;25.30;99.90;;;;;;4977017;28;20233;-88
2023/08/11 11:36:31;;;;;;;3.55;1.15;;;25.40;99.90;;;;;;4978450;28;20176;-86
2023/08/11 11:38:58;;;;;;;2.03;1.00;;;25.50;99.90;;;;;;4975571;28;20365;-88
2023/08/11 11:41:23;;;;;;;2.08;1.20;;;25.50;99.20;;;;;;4958944;28;20189;-89
2023/08/11 11:43:50;;;;;;;1.98;1.10;;;25.50;99.90;;;;;;4975729;28;20199;-88
2023/08/11 11:46:18;;;;;;;420.38;64.30;;;25.50;99.90;;;;;;4959092;28;20238;-89
2023/08/11 11:48:46;;;;;;;8.82;1.10;;;25.60;99.90;;;;;;4976104;28;20267;-91
2023/08/11 11:51:13;;;;;;;2.42;1.10;;;25.70;99.90;;;;;;4958704;28;20231;-91
2023/08/11 11:53:39;;;;;;;2.20;1.02;;;25.80;99.50;;;;;;4958858;28;20187;-89
2023/08/11 11:56:07;;;;;;;1.83;0.98;;;25.90;98.80;;;;;;4958607;28;20180;-89
2023/08/11 11:58:36;;;;;;;2.22;1.05;;;26.00;99.90;;;;;;4957568;28;20191;-88
2023/08/11 12:01:29;;;;;;;2.45;1.15;;;26.10;99.60;;;;;;4958809;28;20176;-88
2023/08/11 12:04:00;;;;;;;1.02;0.93;;;26.20;99.60;;;;;;4975885;28;20170;-89
2023/08/11 12:06:28;;;;;;;1.27;1.05;;;26.20;99.90;;;;;;4976061;28;20205;-88
2023/08/11 12:09:09;;;;;;;2.92;1.10;;;26.30;99.90;;;;;;4958361;28;20208;-89
2023/08/11 12:11:37;;;;;;;1.20;0.90;;;26.30;99.60;;;;;;4958246;28;20632;-88
2023/08/11 12:14:05;;;;;;;1.33;0.90;;;26.30;98.90;;;;;;4958251;28;20180;-88
2023/08/11 12:16:31;;;;;;;3.28;1.08;;;26.40;99.90;;;;;;4958549;28;20188;-88
2023/08/11 12:19:01;;;;;;;1.27;0.90;;;26.50;99.90;;;;;;4975114;28;20172;-86
2023/08/11 12:21:28;;;;;;;1.73;0.98;;;26.50;99.90;;;;;;4958449;28;20181;-88
2023/08/11 12:23:53;;;;;;;2.45;0.90;;;26.50;99.50;;;;;;4958408;28;20196;-90
2023/08/11 12:26:19;;;;;;;1.70;1.00;;;26.60;99.30;;;;;;4958418;28;20181;-88
2023/08/11 12:28:51;;;;;;;2.35;0.93;;;26.70;99.90;;;;;;4958173;28;20730;-88
2023/08/11 12:31:16;;;;;;;4.47;1.00;;;26.80;99.90;;;;;;4974390;28;20177;-87
2023/08/11 12:33:42;;;;;;;2.25;1.02;;;26.90;99.90;;;;;;4974276;28;20551;-87
2023/08/11 12:36:08;;;;;;;1.63;1.00;;;26.90;98.80;;;;;;4957945;28;20199;-88
2023/08/11 12:38:41;;;;;;;1.30;0.85;;;26.90;99.90;;;;;;4978516;28;20171;-87
2023/08/11 12:41:07;;;;;;;1.90;0.93;;;27.00;99.90;;;;;;4981167;28;20227;-88
2023/08/11 12:43:32;;;;;;;2.03;0.70;;;27.20;99.20;;;;;;4998362;28;20184;-88
2023/08/11 12:45:58;;;;;;;1.75;0.88;;;27.20;98.70;;;;;;4998430;28;20238;-85